Time;durP1;ratioP1;P1;durP2;ratioP2;P2;SDS_P1;SDS_P2;PMS_P1;PMS_P2;Temp;Humidity;BMP_temperature;BMP_pressure;BME280_temperature;BME280_humidity;BME280_pressure;Samples;Min_cycle;Max_cycle;Signal;HPM_P1;HPM_P2
2023/12/24 00:01:12;;;;;;;10.77;8.65;;;9.50;99.90;;;;;;5226408;28;20013;-75
2023/12/24 00:03:43;;;;;;;7.93;7.22;;;9.40;99.90;;;;;;5225108;28;20021;-76
2023/12/24 00:06:14;;;;;;;8.55;7.85;;;9.30;99.90;;;;;;5226337;28;20376;-76
2023/12/24 00:08:44;;;;;;;8.20;7.50;;;9.40;99.90;;;;;;5225042;28;20105;-76
2023/12/24 00:11:15;;;;;;;8.23;7.47;;;9.30;99.90;;;;;;5225988;28;20037;-76
2023/12/24 00:13:46;;;;;;;8.05;7.43;;;9.20;99.90;;;;;;5224888;28;20112;-76
2023/12/24 00:16:17;;;;;;;7.60;7.05;;;9.40;99.90;;;;;;5681598;23;20024;-74
2023/12/24 00:18:48;;;;;;;8.07;7.45;;;9.40;99.90;;;;;;5266959;28;20772;-76
2023/12/24 00:21:18;;;;;;;7.30;6.55;;;9.40;99.90;;;;;;5270060;28;20063;-77
2023/12/24 00:23:49;;;;;;;8.50;7.70;;;9.10;99.90;;;;;;5288195;28;20478;-77
2023/12/24 00:26:20;;;;;;;8.57;7.88;;;9.30;99.90;;;;;;5288043;28;20429;-77
2023/12/24 00:28:51;;;;;;;8.30;7.57;;;9.30;99.90;;;;;;5288118;28;20016;-77
2023/12/24 00:31:22;;;;;;;7.25;6.75;;;9.30;99.90;;;;;;5288652;28;20566;-75
2023/12/24 00:33:53;;;;;;;8.77;7.75;;;9.40;99.90;;;;;;5288562;28;20026;-76
2023/12/24 00:36:23;;;;;;;8.48;7.65;;;9.40;99.90;;;;;;5270238;28;20394;-77
2023/12/24 00:38:54;;;;;;;7.97;7.38;;;9.50;99.90;;;;;;5291572;28;20019;-77
2023/12/24 00:41:25;;;;;;;8.98;8.18;;;9.50;99.90;;;;;;5292639;28;20035;-77
2023/12/24 00:43:56;;;;;;;9.45;8.65;;;9.60;99.90;;;;;;5291682;28;20110;-76
2023/12/24 00:46:27;;;;;;;8.13;7.28;;;9.40;99.90;;;;;;5292366;28;20027;-77
2023/12/24 00:48:58;;;;;;;9.43;8.43;;;9.50;99.90;;;;;;5273778;28;20026;-77
2023/12/24 00:51:29;;;;;;;8.18;7.47;;;9.50;99.90;;;;;;5292412;28;20081;-77
2023/12/24 00:54:01;;;;;;;8.40;7.70;;;9.30;99.90;;;;;;5292474;28;20020;-76
2023/12/24 00:56:32;;;;;;;8.77;8.05;;;9.40;99.90;;;;;;5292219;28;20024;-76
2023/12/24 00:59:03;;;;;;;7.88;7.28;;;9.40;99.90;;;;;;5291949;28;20026;-76
2023/12/24 01:01:34;;;;;;;8.18;7.57;;;9.50;99.90;;;;;;5291593;28;20107;-76
2023/12/24 01:04:04;;;;;;;8.48;7.78;;;9.50;99.90;;;;;;5291197;28;20024;-75
2023/12/24 01:06:35;;;;;;;8.73;8.13;;;9.40;99.90;;;;;;5272980;28;20033;-77
2023/12/24 01:09:06;;;;;;;8.00;7.30;;;9.50;99.90;;;;;;5272651;28;20028;-77
2023/12/24 01:11:36;;;;;;;8.65;8.05;;;9.60;99.90;;;;;;5289144;28;20027;-76
2023/12/24 01:14:07;;;;;;;9.88;7.28;;;9.60;99.90;;;;;;5258236;28;20064;-78
2023/12/24 01:16:41;;;;;;;7.85;7.25;;;9.70;99.90;;;;;;5250576;28;20051;-77
2023/12/24 01:19:13;;;;;;;7.43;6.93;;;9.70;99.90;;;;;;5251704;28;20390;-76
2023/12/24 01:21:43;;;;;;;8.27;7.68;;;9.70;99.90;;;;;;5269405;28;20116;-77
2023/12/24 01:24:14;;;;;;;7.47;6.80;;;9.80;99.90;;;;;;5269140;28;20095;-77
2023/12/24 01:26:45;;;;;;;7.57;6.97;;;9.90;99.90;;;;;;5251021;28;20024;-76
2023/12/24 01:29:16;;;;;;;7.18;6.57;;;9.90;99.90;;;;;;5269367;28;20032;-76
2023/12/24 01:31:47;;;;;;;7.20;6.60;;;9.70;99.90;;;;;;5269241;28;20024;-76
2023/12/24 01:34:18;;;;;;;6.18;5.68;;;9.80;99.90;;;;;;5251062;28;20597;-77
2023/12/24 01:36:48;;;;;;;7.40;6.70;;;9.60;99.90;;;;;;5269959;28;20448;-77
2023/12/24 01:39:20;;;;;;;6.90;6.43;;;9.70;99.90;;;;;;5269931;28;20369;-77
2023/12/24 01:41:51;;;;;;;6.50;6.05;;;9.70;99.90;;;;;;5270026;28;20012;-77
2023/12/24 01:44:21;;;;;;;6.80;6.30;;;9.80;99.90;;;;;;5252282;28;20420;-77
2023/12/24 01:46:53;;;;;;;7.47;6.82;;;9.80;99.90;;;;;;5269713;28;20031;-76
2023/12/24 01:49:24;;;;;;;7.70;7.05;;;9.80;99.90;;;;;;5251708;28;20028;-77
2023/12/24 01:51:56;;;;;;;7.25;6.75;;;9.90;99.90;;;;;;5269581;28;20500;-77
2023/12/24 01:54:28;;;;;;;7.10;6.60;;;9.90;99.90;;;;;;5251455;28;20020;-77
2023/12/24 01:56:59;;;;;;;8.07;7.50;;;9.90;99.90;;;;;;5269390;28;20046;-77
2023/12/24 01:59:32;;;;;;;7.85;7.15;;;9.80;99.90;;;;;;5268566;28;20035;-76
2023/12/24 02:02:03;;;;;;;8.45;7.75;;;9.80;99.90;;;;;;5260808;28;20087;-76
2023/12/24 02:04:34;;;;;;;8.45;7.82;;;9.70;99.90;;;;;;5289835;28;20023;-76
2023/12/24 02:07:07;;;;;;;8.77;7.03;;;9.80;99.90;;;;;;5274040;28;20032;-76
2023/12/24 02:09:37;;;;;;;8.45;7.75;;;9.80;99.90;;;;;;5250805;28;20671;-77
2023/12/24 02:12:08;;;;;;;7.90;7.40;;;9.80;99.90;;;;;;5268750;28;20123;-76
2023/12/24 02:14:39;;;;;;;8.25;7.55;;;9.80;99.90;;;;;;5269285;28;20081;-76
2023/12/24 02:17:11;;;;;;;9.27;8.52;;;9.90;99.90;;;;;;5268607;28;20047;-75
2023/12/24 02:19:42;;;;;;;8.43;7.40;;;9.90;99.90;;;;;;5269284;28;20031;-75
2023/12/24 02:22:13;;;;;;;8.75;8.00;;;10.00;99.90;;;;;;5269230;28;20031;-76
2023/12/24 02:24:44;;;;;;;8.38;7.75;;;10.00;99.90;;;;;;5250891;28;20016;-76
2023/12/24 02:27:31;;;;;;;8.73;8.02;;;10.00;99.90;;;;;;5268915;28;20052;-76
2023/12/24 02:30:08;;;;;;;8.75;8.05;;;10.00;99.90;;;;;;5269431;28;20052;-76
2023/12/24 02:32:41;;;;;;;8.13;7.63;;;10.00;99.90;;;;;;5250876;28;20040;-76
2023/12/24 02:35:13;;;;;;;8.23;7.65;;;10.00;99.90;;;;;;5269069;28;20474;-76
2023/12/24 02:37:44;;;;;;;8.85;8.25;;;10.10;99.90;;;;;;5268896;28;20035;-77
2023/12/24 02:40:15;;;;;;;9.40;8.80;;;10.10;99.90;;;;;;5269012;28;20460;-76
2023/12/24 02:42:45;;;;;;;8.10;7.32;;;10.30;99.90;;;;;;5250666;28;20039;-77
2023/12/24 02:45:16;;;;;;;7.65;7.07;;;10.20;99.90;;;;;;5268670;28;20020;-77
2023/12/24 02:47:47;;;;;;;8.43;7.82;;;10.10;99.90;;;;;;5250185;28;20081;-76
2023/12/24 02:50:19;;;;;;;8.32;7.72;;;10.20;99.90;;;;;;5267681;28;20487;-76
2023/12/24 02:52:50;;;;;;;7.45;6.95;;;10.30;99.90;;;;;;5268426;28;20066;-76
2023/12/24 02:55:21;;;;;;;8.25;7.70;;;10.20;99.90;;;;;;5267803;28;20047;-76
2023/12/24 02:57:51;;;;;;;7.43;6.85;;;10.20;99.90;;;;;;5250013;28;20080;-76
2023/12/24 03:00:22;;;;;;;9.15;8.20;;;10.20;99.90;;;;;;5249487;28;20024;-77
2023/12/24 03:02:53;;;;;;;9.07;8.50;;;10.30;99.90;;;;;;5249521;28;20036;-76
2023/12/24 03:05:24;;;;;;;7.28;6.63;;;10.20;99.90;;;;;;5249339;28;20107;-76
2023/12/24 03:07:54;;;;;;;8.25;7.75;;;10.10;99.90;;;;;;5268097;28;20371;-76
2023/12/24 03:10:25;;;;;;;7.70;7.15;;;10.10;99.90;;;;;;5250081;28;20085;-76
2023/12/24 03:12:56;;;;;;;8.05;7.45;;;10.00;99.90;;;;;;5268087;28;20043;-77
2023/12/24 03:15:27;;;;;;;7.15;6.65;;;10.10;99.90;;;;;;5268339;28;20732;-77
2023/12/24 03:17:57;;;;;;;6.47;5.88;;;10.00;99.90;;;;;;5249842;28;20678;-76
2023/12/24 03:20:28;;;;;;;6.43;5.93;;;9.90;99.90;;;;;;5268394;28;20422;-76
2023/12/24 03:22:59;;;;;;;7.40;6.72;;;9.80;99.90;;;;;;5268367;28;20387;-76
2023/12/24 03:25:30;;;;;;;6.88;6.18;;;9.90;99.90;;;;;;5267792;28;20635;-77
2023/12/24 03:28:00;;;;;;;6.57;6.05;;;10.10;99.90;;;;;;5268419;28;20430;-77
2023/12/24 03:30:31;;;;;;;6.20;5.78;;;9.90;99.90;;;;;;5267573;28;20032;-76
2023/12/24 03:33:02;;;;;;;7.60;7.10;;;9.80;99.90;;;;;;5268363;28;20031;-76
2023/12/24 03:35:34;;;;;;;7.25;6.70;;;10.00;99.90;;;;;;5268231;28;20413;-76
2023/12/24 03:38:04;;;;;;;6.93;6.18;;;10.10;99.90;;;;;;5268293;28;20468;-76
2023/12/24 03:40:35;;;;;;;6.47;5.60;;;10.20;99.90;;;;;;5267897;28;20028;-76
2023/12/24 03:43:06;;;;;;;6.03;5.53;;;10.00;99.90;;;;;;5268155;28;20029;-76
2023/12/24 03:45:37;;;;;;;6.60;6.07;;;10.00;99.90;;;;;;5267314;28;20020;-76
2023/12/24 03:48:08;;;;;;;8.85;8.25;;;9.70;99.90;;;;;;5249561;28;20154;-77
2023/12/24 03:50:39;;;;;;;8.50;7.70;;;9.70;99.90;;;;;;5248890;28;20172;-75
2023/12/24 03:53:09;;;;;;;8.02;7.53;;;9.60;99.90;;;;;;5266918;28;20048;-76
2023/12/24 03:55:40;;;;;;;7.90;7.35;;;9.50;99.90;;;;;;5267471;28;20398;-76
2023/12/24 03:58:11;;;;;;;7.25;6.60;;;9.20;99.90;;;;;;5267016;28;20710;-75
2023/12/24 04:00:42;;;;;;;9.05;8.25;;;9.30;99.90;;;;;;5249150;28;20480;-76
2023/12/24 04:03:13;;;;;;;8.57;7.90;;;9.40;99.90;;;;;;5266956;28;20024;-77
2023/12/24 04:05:43;;;;;;;8.52;7.85;;;9.40;99.90;;;;;;5249674;28;20035;-76
2023/12/24 04:08:15;;;;;;;9.90;8.95;;;9.40;99.90;;;;;;5267436;28;20035;-76
2023/12/24 04:10:46;;;;;;;10.73;9.90;;;9.30;99.90;;;;;;5267760;28;20024;-75
2023/12/24 04:13:17;;;;;;;13.30;12.40;;;9.00;99.90;;;;;;5269793;28;20538;-75
2023/12/24 04:15:47;;;;;;;12.10;11.30;;;8.90;99.90;;;;;;5271556;28;20027;-76
2023/12/24 04:18:18;;;;;;;11.57;10.75;;;8.80;99.90;;;;;;5271592;28;20056;-76
2023/12/24 04:20:49;;;;;;;12.10;11.10;;;8.90;99.90;;;;;;5271630;28;20027;-76
2023/12/24 04:23:20;;;;;;;12.82;11.82;;;9.10;99.90;;;;;;5271629;28;20048;-77
2023/12/24 04:25:50;;;;;;;15.95;14.90;;;9.40;99.90;;;;;;5271564;28;20028;-76
2023/12/24 04:28:21;;;;;;;12.32;11.40;;;9.90;99.90;;;;;;5271927;28;20030;-76
2023/12/24 04:30:52;;;;;;;9.85;9.05;;;10.00;99.90;;;;;;5271433;28;20047;-77
2023/12/24 04:33:23;;;;;;;10.60;9.80;;;10.00;99.90;;;;;;5272099;28;20024;-76
2023/12/24 04:35:54;;;;;;;10.13;9.27;;;10.10;99.90;;;;;;5253412;28;20435;-76
2023/12/24 04:38:24;;;;;;;9.93;9.02;;;10.20;99.90;;;;;;5271064;28;20052;-76
2023/12/24 04:40:55;;;;;;;9.70;9.00;;;10.30;99.90;;;;;;5271032;28;20085;-76
2023/12/24 04:43:26;;;;;;;8.88;8.07;;;10.20;99.90;;;;;;5271621;28;20068;-76
2023/12/24 04:45:59;;;;;;;8.77;7.97;;;10.20;99.90;;;;;;5270185;28;20031;-76
2023/12/24 04:48:30;;;;;;;8.10;7.32;;;10.30;99.90;;;;;;5270212;28;20106;-76
2023/12/24 04:51:01;;;;;;;8.68;7.80;;;10.30;99.90;;;;;;5270230;28;20111;-76
2023/12/24 04:53:32;;;;;;;8.48;7.65;;;10.30;99.90;;;;;;5270186;28;20055;-76
2023/12/24 04:56:03;;;;;;;8.55;7.85;;;10.30;99.90;;;;;;5270381;28;20053;-76
2023/12/24 04:58:34;;;;;;;9.00;8.05;;;10.30;99.90;;;;;;5251951;28;20032;-74
2023/12/24 05:01:07;;;;;;;8.63;7.75;;;10.20;99.90;;;;;;5270418;28;20073;-76
2023/12/24 05:03:37;;;;;;;8.68;7.90;;;10.20;99.90;;;;;;5271019;28;20035;-76
2023/12/24 05:06:08;;;;;;;9.18;8.27;;;10.20;99.90;;;;;;5252810;28;20035;-76
2023/12/24 05:08:40;;;;;;;10.13;9.23;;;10.20;99.90;;;;;;5270875;28;20028;-76
2023/12/24 05:11:11;;;;;;;8.45;7.65;;;10.20;99.90;;;;;;5270027;28;20020;-75
2023/12/24 05:13:42;;;;;;;8.85;7.93;;;10.20;99.90;;;;;;5252039;28;20034;-76
2023/12/24 05:16:13;;;;;;;8.27;7.45;;;10.00;99.90;;;;;;5269966;28;20020;-75
2023/12/24 05:18:45;;;;;;;9.85;8.43;;;10.10;99.90;;;;;;5270507;28;20056;-75
2023/12/24 05:21:16;;;;;;;10.57;9.60;;;10.00;99.90;;;;;;5270417;28;20020;-74
2023/12/24 05:23:46;;;;;;;9.13;8.32;;;10.00;99.90;;;;;;5269881;28;20020;-76
2023/12/24 05:26:17;;;;;;;11.00;10.00;;;9.80;99.90;;;;;;5270823;28;20032;-76
2023/12/24 05:28:48;;;;;;;10.57;9.77;;;9.90;99.90;;;;;;5252022;28;20081;-75
2023/12/24 05:31:19;;;;;;;10.95;9.95;;;9.90;99.90;;;;;;5251854;28;20074;-77
2023/12/24 05:33:49;;;;;;;11.35;10.43;;;9.90;99.90;;;;;;5252041;28;20029;-75
2023/12/24 05:36:21;;;;;;;10.90;10.02;;;9.80;99.90;;;;;;5269561;28;20020;-75
2023/12/24 05:38:52;;;;;;;13.73;12.63;;;9.80;99.90;;;;;;5269199;28;20027;-75
2023/12/24 05:41:22;;;;;;;11.00;9.93;;;9.70;99.90;;;;;;5269229;28;20020;-76
2023/12/24 05:43:53;;;;;;;10.05;9.15;;;9.70;99.90;;;;;;5268971;28;20498;-75
2023/12/24 05:46:24;;;;;;;10.02;9.20;;;9.70;99.90;;;;;;5250616;28;20826;-76
2023/12/24 05:48:55;;;;;;;11.45;10.32;;;9.70;99.90;;;;;;5268514;28;20039;-77
2023/12/24 05:51:26;;;;;;;9.77;8.88;;;9.70;99.90;;;;;;5250366;28;20488;-75
2023/12/24 05:53:57;;;;;;;10.65;9.65;;;9.70;99.90;;;;;;5268554;28;20636;-75
2023/12/24 05:56:27;;;;;;;10.63;9.60;;;9.60;99.90;;;;;;5268806;28;20958;-75
2023/12/24 05:58:58;;;;;;;10.07;9.18;;;9.50;99.90;;;;;;5269582;28;20024;-76
2023/12/24 06:01:29;;;;;;;10.18;9.23;;;9.60;99.90;;;;;;5251203;28;20039;-76
2023/12/24 06:04:00;;;;;;;10.07;9.05;;;9.60;99.90;;;;;;5268810;28;20039;-75
2023/12/24 06:06:30;;;;;;;11.00;9.95;;;9.60;99.90;;;;;;5269273;28;20028;-75
2023/12/24 06:09:01;;;;;;;13.50;10.00;;;9.60;99.90;;;;;;5269256;28;20033;-75
2023/12/24 06:11:32;;;;;;;12.07;10.98;;;9.50;99.90;;;;;;5268673;28;20564;-75
2023/12/24 06:14:03;;;;;;;10.90;9.90;;;9.60;99.90;;;;;;5269267;28;20388;-76
2023/12/24 06:16:34;;;;;;;12.25;11.10;;;9.70;99.90;;;;;;5250674;28;20117;-76
2023/12/24 06:19:05;;;;;;;11.95;10.85;;;9.60;99.90;;;;;;5269213;28;20024;-75
2023/12/24 06:21:36;;;;;;;12.82;11.63;;;9.80;99.90;;;;;;5269152;28;20111;-75
2023/12/24 06:24:07;;;;;;;12.23;11.23;;;9.80;99.90;;;;;;5250725;28;20177;-75
2023/12/24 06:26:37;;;;;;;12.57;11.48;;;9.80;99.90;;;;;;5268565;28;20032;-75
2023/12/24 06:29:08;;;;;;;11.82;10.82;;;9.80;99.90;;;;;;5268918;28;20479;-76
2023/12/24 06:31:39;;;;;;;12.18;10.95;;;9.90;99.90;;;;;;5269036;28;20073;-76
2023/12/24 06:34:11;;;;;;;11.10;10.00;;;9.90;99.90;;;;;;5250230;28;20024;-75
2023/12/24 06:36:42;;;;;;;13.10;11.90;;;10.00;99.90;;;;;;5249441;28;20679;-75
2023/12/24 06:39:12;;;;;;;12.50;11.40;;;10.00;99.90;;;;;;5249822;28;20027;-75
2023/12/24 06:41:45;;;;;;;11.07;10.15;;;10.00;99.90;;;;;;5267479;28;20063;-76
2023/12/24 06:44:16;;;;;;;13.25;12.05;;;9.90;99.90;;;;;;5249771;28;20073;-76
2023/12/24 06:46:47;;;;;;;13.70;12.30;;;10.00;99.90;;;;;;5248888;28;20126;-76
2023/12/24 06:49:19;;;;;;;13.38;12.27;;;10.20;99.90;;;;;;5255308;28;20024;-76
2023/12/24 06:51:49;;;;;;;14.25;13.00;;;10.30;99.90;;;;;;5273608;28;20375;-76
2023/12/24 06:54:20;;;;;;;13.52;12.43;;;10.40;99.90;;;;;;5268136;28;20028;-76
2023/12/24 06:56:51;;;;;;;14.38;13.07;;;10.30;99.90;;;;;;5268463;28;20388;-74
2023/12/24 06:59:22;;;;;;;12.93;11.80;;;10.40;99.90;;;;;;5268646;28;20486;-77
2023/12/24 07:01:52;;;;;;;13.57;12.52;;;10.50;99.90;;;;;;5269257;28;20020;-77
2023/12/24 07:04:23;;;;;;;13.43;12.13;;;10.60;99.90;;;;;;5268063;28;20157;-76
2023/12/24 07:06:54;;;;;;;12.15;11.02;;;10.70;99.90;;;;;;5250377;28;20391;-75
2023/12/24 07:09:25;;;;;;;11.68;10.68;;;10.80;99.90;;;;;;5249845;28;20024;-76
2023/12/24 07:11:56;;;;;;;11.77;10.23;;;10.70;99.90;;;;;;5249915;28;20039;-75
2023/12/24 07:14:27;;;;;;;11.55;10.43;;;10.80;99.90;;;;;;5268057;28;20016;-76
2023/12/24 07:16:58;;;;;;;11.80;10.50;;;11.10;99.90;;;;;;5267945;28;20048;-77
2023/12/24 07:19:29;;;;;;;289.77;33.28;;;11.10;99.90;;;;;;5249994;28;20479;-76
2023/12/24 07:21:59;;;;;;;19.98;11.38;;;11.10;99.90;;;;;;5249647;28;20043;-76
2023/12/24 07:24:30;;;;;;;9.10;7.28;;;11.30;99.90;;;;;;5249702;28;20027;-74
2023/12/24 07:27:01;;;;;;;8.25;7.10;;;11.30;99.90;;;;;;5249843;28;20032;-74
2023/12/24 07:29:32;;;;;;;8.32;7.00;;;11.40;99.90;;;;;;5267626;28;20470;-75
2023/12/24 07:32:04;;;;;;;8.38;6.47;;;11.40;99.90;;;;;;5267531;28;20951;-77
2023/12/24 07:34:35;;;;;;;8.02;7.20;;;11.40;99.90;;;;;;5267923;28;20099;-77
2023/12/24 07:37:06;;;;;;;7.85;6.68;;;11.50;99.90;;;;;;5267853;28;20103;-76
2023/12/24 07:39:38;;;;;;;9.75;7.82;;;11.80;99.90;;;;;;5267663;28;20024;-76
2023/12/24 07:42:09;;;;;;;8.68;7.88;;;11.80;99.90;;;;;;5267546;28;20083;-76
2023/12/24 07:44:40;;;;;;;11.15;9.70;;;12.00;99.90;;;;;;5267620;28;20142;-76
2023/12/24 07:47:11;;;;;;;9.85;8.93;;;12.10;99.90;;;;;;5251527;28;20036;-75
2023/12/24 07:49:41;;;;;;;8.57;6.95;;;12.20;99.90;;;;;;5272204;28;20024;-76
2023/12/24 07:52:12;;;;;;;8.35;7.55;;;12.40;99.90;;;;;;5272603;28;20032;-75
2023/12/24 07:54:43;;;;;;;9.18;8.10;;;12.40;99.90;;;;;;5271949;28;20051;-76
2023/12/24 07:57:14;;;;;;;8.43;7.47;;;12.60;99.90;;;;;;5254576;28;20023;-76
2023/12/24 07:59:44;;;;;;;10.52;9.52;;;12.80;99.90;;;;;;5272793;28;20463;-75
2023/12/24 08:02:15;;;;;;;10.68;9.68;;;13.00;99.90;;;;;;5272467;28;20024;-76
2023/12/24 08:04:46;;;;;;;10.23;9.15;;;13.10;99.90;;;;;;5254122;28;20027;-76
2023/12/24 08:07:17;;;;;;;11.73;10.82;;;13.30;99.90;;;;;;5271866;28;20024;-75
2023/12/24 08:09:48;;;;;;;11.52;10.63;;;13.30;99.90;;;;;;5271617;28;20032;-77
2023/12/24 08:12:19;;;;;;;12.00;11.00;;;13.50;99.90;;;;;;5271521;28;20496;-75
2023/12/24 08:14:50;;;;;;;10.18;9.18;;;13.60;99.90;;;;;;5271604;28;20144;-75
2023/12/24 08:17:20;;;;;;;10.95;10.02;;;13.80;99.90;;;;;;5253020;28;20046;-76
2023/12/24 08:19:54;;;;;;;10.70;9.82;;;13.90;99.90;;;;;;5272225;28;20032;-74
2023/12/24 08:22:25;;;;;;;11.55;10.50;;;13.60;99.90;;;;;;5271871;28;20130;-74
2023/12/24 08:24:56;;;;;;;11.48;10.68;;;14.00;99.90;;;;;;5253202;28;20128;-75
2023/12/24 08:27:27;;;;;;;12.23;11.23;;;14.20;99.90;;;;;;5271391;28;20089;-75
2023/12/24 08:29:58;;;;;;;13.88;12.77;;;14.40;99.90;;;;;;5270901;28;20123;-75
2023/12/24 08:32:29;;;;;;;11.68;10.73;;;14.60;99.90;;;;;;5270545;28;20100;-77
2023/12/24 08:34:59;;;;;;;9.95;9.13;;;14.70;99.90;;;;;;5252394;28;20055;-76
2023/12/24 08:37:30;;;;;;;16.15;14.68;;;14.80;99.90;;;;;;5270847;28;20077;-77
2023/12/24 08:40:02;;;;;;;10.25;9.38;;;14.90;99.90;;;;;;5269549;28;20028;-77
2023/12/24 08:42:33;;;;;;;11.45;10.27;;;14.80;99.90;;;;;;5270073;28;20500;-77
2023/12/24 08:47:44;;;;;;;9.38;8.60;;;15.00;99.90;;;;;;5622093;22;20106;-77
2023/12/24 08:50:16;;;;;;;9.55;8.65;;;15.10;99.90;;;;;;5291137;28;20016;-77
2023/12/24 08:52:47;;;;;;;8.50;7.28;;;15.10;99.90;;;;;;5292320;28;20043;-77
2023/12/24 08:55:18;;;;;;;28.45;23.60;;;15.30;99.90;;;;;;5292168;28;20112;-77
2023/12/24 08:57:48;;;;;;;25.42;22.70;;;15.30;99.90;;;;;;5292018;28;20055;-77
2023/12/24 09:00:19;;;;;;;12.00;10.80;;;15.60;99.90;;;;;;5291667;28;20016;-77
2023/12/24 09:02:50;;;;;;;10.65;9.75;;;15.70;99.90;;;;;;5288863;28;20103;-76
2023/12/24 09:05:21;;;;;;;10.07;9.35;;;15.40;99.90;;;;;;5291622;28;20496;-76
2023/12/24 09:07:52;;;;;;;10.50;9.50;;;15.50;99.90;;;;;;5289858;28;20023;-76
2023/12/24 09:10:25;;;;;;;11.02;10.13;;;15.60;99.90;;;;;;5291624;28;20612;-77
2023/12/24 09:12:56;;;;;;;11.00;9.98;;;15.90;99.90;;;;;;5290756;28;20512;-76
2023/12/24 09:15:28;;;;;;;13.45;12.20;;;16.00;99.90;;;;;;5291066;28;20028;-77
2023/12/24 09:17:58;;;;;;;6.50;5.97;;;16.10;99.90;;;;;;5269957;28;20811;-76
2023/12/24 09:20:29;;;;;;;7.50;6.80;;;16.40;99.90;;;;;;5264917;28;20036;-75
2023/12/24 09:23:00;;;;;;;5.90;5.40;;;16.50;99.90;;;;;;5268918;28;20534;-75
2023/12/24 09:25:32;;;;;;;6.03;5.53;;;16.50;99.90;;;;;;5269426;28;20028;-75
2023/12/24 09:28:03;;;;;;;5.38;4.97;;;16.50;99.90;;;;;;5269465;28;20027;-75
2023/12/24 09:30:34;;;;;;;6.05;5.50;;;16.30;99.90;;;;;;5268921;28;20024;-76
2023/12/24 09:33:05;;;;;;;6.03;5.32;;;16.70;99.90;;;;;;5268433;28;20108;-77
2023/12/24 09:35:35;;;;;;;7.15;6.55;;;16.60;99.90;;;;;;5268623;28;20032;-75
2023/12/24 09:38:06;;;;;;;7.25;6.55;;;16.40;99.90;;;;;;5269434;28;20028;-76
2023/12/24 09:40:37;;;;;;;8.50;7.50;;;16.20;99.90;;;;;;5269719;28;20024;-76
2023/12/24 09:43:08;;;;;;;8.25;7.45;;;16.10;99.90;;;;;;5269691;28;20127;-75
2023/12/24 09:45:39;;;;;;;7.57;7.05;;;15.90;99.90;;;;;;5267763;28;20122;-74
2023/12/24 09:48:10;;;;;;;6.63;6.13;;;15.90;99.90;;;;;;5264758;28;20044;-74
2023/12/24 09:50:41;;;;;;;7.25;6.65;;;15.60;99.90;;;;;;5283841;28;20478;-74
2023/12/24 09:53:12;;;;;;;7.82;7.13;;;15.50;99.90;;;;;;5268571;28;20031;-74
2023/12/24 09:55:42;;;;;;;6.72;6.20;;;15.60;99.90;;;;;;5266677;28;20028;-74
2023/12/24 09:58:13;;;;;;;6.72;6.22;;;15.40;99.90;;;;;;5267533;28;20031;-75
2023/12/24 10:00:45;;;;;;;7.60;6.88;;;15.50;99.90;;;;;;5267723;28;20028;-74
2023/12/24 10:03:16;;;;;;;7.32;6.75;;;15.50;99.90;;;;;;5259869;28;20025;-75
2023/12/24 10:06:04;;;;;;;7.43;6.72;;;15.30;99.90;;;;;;5268154;28;20027;-75
2023/12/24 10:08:41;;;;;;;7.72;7.10;;;15.40;99.90;;;;;;5266616;28;20028;-76
2023/12/24 10:11:17;;;;;;;9.27;8.48;;;15.20;99.90;;;;;;5266693;28;20380;-75
2023/12/24 10:14:00;;;;;;;8.68;7.75;;;15.20;99.90;;;;;;5266705;28;20514;-74
2023/12/24 10:16:45;;;;;;;8.23;7.38;;;15.50;99.90;;;;;;5265956;28;20036;-74
2023/12/24 10:19:27;;;;;;;7.10;6.45;;;15.80;99.90;;;;;;5268341;28;20494;-74
2023/12/24 10:22:07;;;;;;;7.20;6.60;;;16.20;99.90;;;;;;5267280;28;20040;-75
2023/12/24 10:24:41;;;;;;;6.03;5.50;;;16.60;99.90;;;;;;5266297;28;20028;-74
2023/12/24 10:27:14;;;;;;;9.00;6.05;;;16.80;99.90;;;;;;5266412;28;20040;-75
2023/12/24 10:29:45;;;;;;;6.88;6.38;;;16.70;99.90;;;;;;5263623;28;20028;-74
2023/12/24 10:32:23;;;;;;;6.68;6.07;;;16.90;99.90;;;;;;5266761;28;20501;-75
2023/12/24 10:34:57;;;;;;;9.52;8.73;;;16.80;99.90;;;;;;5259372;28;20089;-74
2023/12/24 10:37:29;;;;;;;9.13;8.43;;;16.90;99.90;;;;;;5267323;28;20027;-75
2023/12/24 10:40:08;;;;;;;6.88;6.38;;;17.10;99.90;;;;;;5266894;28;20012;-73
2023/12/24 10:42:40;;;;;;;7.50;6.93;;;17.10;99.90;;;;;;5266103;28;20024;-74
2023/12/24 10:45:11;;;;;;;8.35;7.65;;;17.30;99.90;;;;;;5262885;28;20429;-75
2023/12/24 10:47:42;;;;;;;8.88;8.27;;;17.30;99.90;;;;;;5266973;28;20047;-75
2023/12/24 10:50:13;;;;;;;9.30;8.60;;;17.70;99.90;;;;;;5266372;28;20045;-74
2023/12/24 10:52:44;;;;;;;9.10;8.50;;;17.40;99.90;;;;;;5266503;28;20042;-75
2023/12/24 10:55:15;;;;;;;9.98;9.27;;;17.60;99.90;;;;;;5265564;28;20035;-74
2023/12/24 10:58:06;;;;;;;10.00;9.35;;;17.40;99.90;;;;;;5265888;28;20038;-75
2023/12/24 11:00:37;;;;;;;9.13;8.52;;;17.20;99.90;;;;;;5265506;28;20022;-74
2023/12/24 11:03:08;;;;;;;10.00;9.40;;;17.00;99.90;;;;;;5265540;28;20028;-75
2023/12/24 11:05:48;;;;;;;10.52;9.82;;;17.20;99.90;;;;;;5265236;28;20450;-75
2023/12/24 11:08:21;;;;;;;9.35;8.32;;;17.60;99.90;;;;;;5263071;28;20088;-75
2023/12/24 11:10:57;;;;;;;9.55;8.85;;;17.30;99.90;;;;;;5265652;28;20387;-74
2023/12/24 11:13:34;;;;;;;9.18;8.50;;;17.20;99.90;;;;;;5266678;28;20040;-75
2023/12/24 11:16:09;;;;;;;7.80;7.30;;;17.20;99.90;;;;;;5264918;28;20384;-75
2023/12/24 11:18:45;;;;;;;9.98;9.38;;;17.20;99.90;;;;;;5262056;28;20059;-75
2023/12/24 11:21:19;;;;;;;15.32;14.07;;;17.60;99.90;;;;;;5264079;28;20016;-74
2023/12/24 11:24:08;;;;;;;8.73;8.13;;;17.40;99.90;;;;;;5266075;28;20020;-75
2023/12/24 11:26:52;;;;;;;9.87;9.23;;;17.50;99.90;;;;;;5266522;28;20016;-75
2023/12/24 11:29:47;;;;;;;8.90;8.35;;;17.70;99.90;;;;;;5267092;28;20028;-76
2023/12/24 11:32:24;;;;;;;9.85;9.25;;;16.90;99.90;;;;;;5266018;28;20179;-77
2023/12/24 11:34:57;;;;;;;8.98;8.48;;;17.40;99.90;;;;;;5267344;28;20051;-76
2023/12/24 11:37:35;;;;;;;10.35;9.65;;;17.10;99.90;;;;;;5266356;28;20028;-76
2023/12/24 11:40:15;;;;;;;11.80;11.10;;;17.40;99.90;;;;;;5265476;28;20034;-77
2023/12/24 11:42:49;;;;;;;12.07;11.20;;;17.30;99.90;;;;;;5266894;28;20036;-77
2023/12/24 11:45:29;;;;;;;12.68;11.88;;;16.90;99.90;;;;;;5265310;28;20040;-77
2023/12/24 11:48:02;;;;;;;11.57;10.68;;;17.20;99.90;;;;;;5267013;28;20048;-78
2023/12/24 11:50:34;;;;;;;11.20;10.50;;;17.10;99.90;;;;;;5267158;28;20042;-76
2023/12/24 11:53:09;;;;;;;11.23;10.52;;;17.10;99.90;;;;;;5267043;28;20036;-77
2023/12/24 11:55:40;;;;;;;11.27;10.63;;;16.70;99.90;;;;;;5265642;28;20050;-78
2023/12/24 11:58:10;;;;;;;13.20;12.38;;;16.60;99.90;;;;;;5266896;28;20028;-76
2023/12/24 12:00:41;;;;;;;14.40;13.35;;;17.00;99.90;;;;;;5266912;28;20020;-75
2023/12/24 12:03:18;;;;;;;13.77;12.88;;;17.00;99.90;;;;;;5266921;28;20035;-77
2023/12/24 12:05:48;;;;;;;13.63;12.80;;;16.80;99.90;;;;;;5267159;28;20479;-77
2023/12/24 12:08:19;;;;;;;27.85;25.35;;;16.80;99.90;;;;;;5266694;28;20024;-76
2023/12/24 12:10:51;;;;;;;13.80;12.82;;;16.80;99.90;;;;;;5266161;28;20030;-77
2023/12/24 12:13:22;;;;;;;22.50;20.67;;;16.70;99.90;;;;;;5264031;28;20036;-77
2023/12/24 12:15:53;;;;;;;12.13;11.32;;;16.60;99.90;;;;;;5265246;28;20487;-78
2023/12/24 12:18:23;;;;;;;14.73;13.82;;;16.60;99.90;;;;;;5265347;28;20036;-77
2023/12/24 12:20:54;;;;;;;12.63;11.65;;;16.90;99.90;;;;;;5264253;28;20032;-77
2023/12/24 12:23:25;;;;;;;12.02;11.32;;;17.00;99.90;;;;;;5265866;28;20020;-77
2023/12/24 12:25:56;;;;;;;16.13;15.05;;;17.40;99.90;;;;;;5264378;28;20063;-76
2023/12/24 12:28:26;;;;;;;15.75;14.75;;;17.90;99.90;;;;;;5264396;28;20028;-77
2023/12/24 12:30:57;;;;;;;18.92;17.48;;;19.70;99.90;;;;;;5266136;28;20042;-78
2023/12/24 12:33:28;;;;;;;17.17;15.88;;;19.50;99.90;;;;;;5263253;28;20060;-76
2023/12/24 12:36:02;;;;;;;13.23;12.05;;;23.10;99.90;;;;;;5269173;28;20039;-77
2023/12/24 12:38:33;;;;;;;14.30;13.25;;;21.60;99.90;;;;;;5267725;28;20031;-77
2023/12/24 12:41:04;;;;;;;8.93;8.30;;;20.80;99.90;;;;;;5268590;28;20043;-78
2023/12/24 12:43:35;;;;;;;11.40;10.70;;;19.70;99.90;;;;;;5268469;28;20058;-76
2023/12/24 12:58:54;;;;;;;11.15;10.25;;;22.10;98.60;;;;;;5306695;27;20438;-71
2023/12/24 13:01:25;;;;;;;12.88;11.98;;;25.00;83.50;;;;;;5287747;27;20397;-72
2023/12/24 13:03:58;;;;;;;9.38;8.88;;;25.50;80.90;;;;;;5296521;27;20020;-72
2023/12/24 13:06:29;;;;;;;13.25;12.25;;;25.00;79.60;;;;;;5282981;28;20039;-72
2023/12/24 13:09:07;;;;;;;11.57;10.88;;;24.00;81.80;;;;;;5284246;28;20107;-72
2023/12/24 13:11:37;;;;;;;11.25;10.45;;;28.10;75.90;;;;;;5283810;28;20478;-72
2023/12/24 13:14:08;;;;;;;6.53;6.03;;;28.50;76.60;;;;;;5283615;28;20024;-72
2023/12/24 13:16:39;;;;;;;6.68;6.13;;;28.90;68.10;;;;;;5283561;28;20480;-72
2023/12/24 13:19:17;;;;;;;4.80;4.40;;;28.00;69.80;;;;;;5283545;28;20120;-71
2023/12/24 13:21:48;;;;;;;10.05;6.40;;;28.40;66.60;;;;;;5269419;28;20093;-72